Pagrindinis puslapis
METAR-TAF:

METAR-TAF

Oro uostai :

Vidsel, Švedija

platuma: 65-52N, ilguma: 020-08E, Aukštis: 180 m

Dabartinis oras

Ataskaita buvo paskelbta 21 minutes, ne 09:50 UTC
Vėjas 8 kt iš Šiaurės
Temperatūra -9°C
Drėgmė 85%
Slėgis 1018 hPa
Matomumas: 6000 m
sniegas

METAR: ESPE 100950Z AUTO 01008KT 6000 -SN FEW007/// BKN012/// OVC023/// M09/M11 Q1018

Laikas: 11:11 (10:11 UTC)

Prognozė

Ataskaita buvo paskelbta 27 valandos ir 1 minutes, ne 07:10 UTC
Prognozė galioja nuo 09 metu 07 UTC su 09 metu 15 UTC
Vėjas 6 kt iš Šiaurės/Šiaurės Rytų
Matomumas: 5000 m
Su prošvaistėmis ne aukštis 900 ft
sniegas, sniego grūdai
Laikinai
nuo 09 metu 07 UTC su 09 metu 15 UTC
Matomumas: 2000 m
ne aukštis 1500 ft
sniegas

TAF: ESPE 090710Z 0907/0915 02006KT 5000 -SN SG BKN009 TEMPO 0907/0915 2000 SN VV015 RMK MIL

Orai ataskaitas ir orų prognozės (METAR, TAF).

turimą stotys yra geltonos ir raudonos taškus žemėlapyje.

Perkelti pele per norėdami pamatyti stoties vardą.

Tada spustelėkite, norėdami matyti oro stebėjimo ir prognozės.

Norėdami pakeisti žemėlapį: spustelėkite ant žalios mygtukų su juodo kryžiaus žemyn,; žalią mygtuką su brūkšneliu, jei norite nutolinti; arba žalių rodyklių gretimoms žemėlapius.


METAR-TAF: